Flight Track Log - Related Links

Times and Time Zones

All times are in EDT time to prevent confusion due to time zone crossing. See the ASQ4209 flight status page for this flight to view local times or setup timezone preferences in your user account.

Time Position Orientation Groundspeed Altitude Reporting Facility
EDT Latitude Longitude Course Direction KTS MPH feet Rate Location/Type
Mon 02:47:35 PM 30.4800 -91.2086 227° Southwest 206 237 20,000  Level Houston Center
Mon 02:48:37 PM 30.4689 -91.2703 258° West 221 254 5,300 -6,048 Descending Houston Center
Mon 02:49:39 PM 30.4633 -91.3431 265° West 229 264 7,500 2,371 Climbing Houston Center
Mon 02:50:41 PM 30.4489 -91.4356 260° West 244 281 10,200 2,323 Climbing Houston Center
Mon 02:51:00 PM 30.4475 -91.6265 254° West  Level FlightAware Approximate
Mon 02:51:43 PM 30.4092 -91.5172 241° Southwest 285 328 12,300  Level Houston Center
Mon 02:52:00 PM 30.4084 -91.7145 227° Southwest  Level FlightAware Approximate
Mon 02:52:45 PM 30.3717 -91.6019 243° Southwest 296 341 13,300  Level Houston Center
Mon 02:53:47 PM 30.3258 -91.7033 242° Southwest 350 403 13,900 919 Climbing Houston Center
Mon 02:54:49 PM 30.2733 -91.8158 242° Southwest 374 430 15,200 1,258 Climbing Houston Center
Mon 02:55:51 PM 30.2247 -91.9244 243° Southwest 378 435 16,500 1,113 Climbing Houston Center
Mon 02:56:53 PM 30.1617 -92.0444 239° Southwest 387 445 17,500 823 Climbing Houston Center
Mon 02:57:55 PM 30.0933 -92.1472 232° Southwest 399 459 18,200 823 Climbing Houston Center
Mon 02:58:57 PM 30.0244 -92.2522 233° Southwest 408 470 19,200 823 Climbing Houston Center
Mon 02:59:59 PM 29.9567 -92.3581 234° Southwest 410 472 19,900 387 Climbing Houston Center
Mon 03:01:01 PM 29.8847 -92.4692 233° Southwest 424 488 20,000 48 Climbing Houston Center
Mon 03:02:03 PM 29.7931 -92.6097 233° Southwest 450 518 20,000  Level Houston Center
Mon 03:03:05 PM 29.7178 -92.7233 233° Southwest 447 514 20,000 -48 Level Houston Center
Mon 03:04:07 PM 29.6689 -92.8556 247° West 451 519 19,900  Descending Houston Center
Mon 03:05:09 PM 29.6317 -92.9811 251° West 422 486 20,000 48 Climbing Houston Center
Mon 03:06:11 PM 29.5958 -93.1031 251° West 404 465 20,000  Level Houston Center
Mon 03:07:13 PM 29.5589 -93.2242 251° West 401 461 20,000  Level Houston Center
Mon 03:08:15 PM 29.5228 -93.3456 251° West 401 461 20,000  Level Houston Center
Mon 03:09:17 PM 29.4783 -93.4919 251° West 403 464 20,000  Level Houston Center
Mon 03:10:19 PM 29.4667 -93.6239 264° West 403 464 20,000  Level Houston Center
Mon 03:11:21 PM 29.4583 -93.7483 266° West 401 461 20,000  Level Houston Center
Mon 03:12:23 PM 29.4494 -93.8758 265° West 401 461 20,000 -726 Level Houston Center
Mon 03:13:25 PM 29.4417 -94.0050 266° West 397 457 18,500 -2,032 Descending Houston Center
Mon 03:14:27 PM 29.4322 -94.1261 265° West 392 451 15,800 -2,129 Descending Houston Center
Mon 03:15:29 PM 29.4236 -94.2561 266° West 356 410 14,100 -1,935 Descending Houston Center
Mon 03:16:31 PM 29.4158 -94.3586 265° West 327 376 11,800 -1,500 Descending Houston Center
Mon 03:17:33 PM 29.4661 -94.4264 310° West 318 366 11,000 -387 Descending Houston Center
Mon 03:18:35 PM 29.5350 -94.4808 325° Northwest 307 353 11,000 -242 Level Houston Center
Mon 03:19:37 PM 29.6058 -94.5344 327° Northwest 308 354 10,500 -484 Descending Houston Center
Mon 03:20:39 PM 29.6536 -94.6089 306° West 297 342 10,000 -1,113 Descending Houston Center
Mon 03:21:41 PM 29.6944 -94.7089 295° West 291 335 8,200 -1,790 Descending Houston Center
Mon 03:22:43 PM 29.7281 -94.7889 296° West 283 326 6,300 -1,065 Descending Houston Center
Mon 03:23:45 PM 29.7603 -94.8692 295° West 279 321 6,000 -133 Descending Houston Center
Mon 03:24:58 PM 29.8036 -94.9750 295° West 276 318 6,000  Level Houston Center
Mon 03:25:48 PM 29.8253 -95.0269 296° West 276 318 6,000  Level Houston Center
Mon 03:26:48 PM 29.8636 -95.1217 295° West 278 320 6,000  Level Houston Center
Mon 03:27:52 PM 29.8969 -95.2019 296° West 277 319 6,000  Level Houston Center
Mon 03:28:54 PM 29.9000 -95.2842 272° West 256 295 6,000  Level Houston Center
Mon 03:30:03 PM 29.8994 -95.3753 270° West 232 267 6,000  Level Houston Center
Mon 03:30:58 PM 29.9006 -95.4297 271° West 230 265 6,000 -1,034 Level Houston Center
Mon 03:31:59 PM 29.9142 -95.5133 281° West 242 278 4,000 -1,475 Descending Houston Center
Mon 03:33:00 PM 29.9781 -95.5225 353° North 216 249 3,000 -590 Descending Houston Center
Mon 03:34:01 PM 29.9969 -95.4769 64° Northeast 183 211 2,800 -197 Descending Houston Center

Login

Don't have an account? Register now (free) for customized features, flight alerts, and more!